createdAt,value
2022-11-03T00:02:10.549Z,100051.22
2022-11-03T00:04:40.654Z,100057.03
2022-11-03T00:07:09.002Z,100058.13
2022-11-03T00:09:37.669Z,100056.47
2022-11-03T00:12:08.274Z,100050.13
2022-11-03T00:14:36.679Z,100054.81
2022-11-03T00:17:05.148Z,100053.13
2022-11-03T00:19:33.671Z,100054.25
2022-11-03T00:22:03.421Z,100055.63
2022-11-03T00:24:31.760Z,100048.44
2022-11-03T00:27:00.187Z,100048.72
2022-11-03T00:29:28.543Z,100056.47
2022-11-03T00:31:56.874Z,100050.09
2022-11-03T00:34:25.201Z,100052.03
2022-11-03T00:36:53.568Z,100049.53
2022-11-03T00:39:23.465Z,100043.47
2022-11-03T00:41:52.025Z,100042.91
2022-11-03T00:44:20.358Z,100039.59
2022-11-03T00:46:48.702Z,100042.63
2022-11-03T00:49:17.074Z,100043.72
2022-11-03T00:51:45.457Z,100034.88
2022-11-03T00:54:14.103Z,100042.59
2022-11-03T00:56:45.172Z,100038.19
2022-11-03T00:59:13.510Z,100041.50
2022-11-03T01:01:46.990Z,100041.78
2022-11-03T01:04:34.564Z,100039.56
2022-11-03T01:07:04.085Z,100040.91
2022-11-03T01:09:36.877Z,100046.19
2022-11-03T01:12:09.360Z,100040.09
2022-11-03T01:14:40.581Z,100039.78
2022-11-03T01:17:11.560Z,100025.72
2022-11-03T01:19:40.158Z,100032.31
2022-11-03T01:22:10.933Z,100020.16
2022-11-03T01:24:41.436Z,100034.50
2022-11-03T01:27:13.284Z,100031.19
2022-11-03T01:29:41.791Z,100031.72
2022-11-03T01:32:10.323Z,100025.66
2022-11-03T01:34:39.228Z,100019.56
2022-11-03T01:37:08.132Z,100020.09
2022-11-03T01:39:36.550Z,100019.81
2022-11-03T01:42:05.788Z,100016.50
2022-11-03T01:44:40.857Z,100019.81
2022-11-03T01:47:21.393Z,100021.16
2022-11-03T01:49:57.414Z,100007.66
2022-11-03T01:52:34.066Z,100002.66
2022-11-03T01:55:07.647Z,100001.25
2022-11-03T01:57:46.437Z,99994.88
2022-11-03T02:00:17.370Z,99995.97
2022-11-03T02:02:46.564Z,99992.66
2022-11-03T02:05:17.722Z,99986.56
2022-11-03T02:07:54.980Z,99982.41
2022-11-03T02:10:25.034Z,99987.09
2022-11-03T02:12:53.668Z,99980.75
2022-11-03T02:15:25.053Z,99977.41
2022-11-03T02:17:56.683Z,99973.28
2022-11-03T02:20:29.235Z,99979.06
2022-11-03T02:23:22.002Z,99978.22
2022-11-03T02:25:54.057Z,99980.16
2022-11-03T02:28:25.940Z,99980.44
2022-11-03T02:31:07.542Z,99977.13
2022-11-03T02:33:48.683Z,99976.28
2022-11-03T02:36:24.668Z,99965.53
2022-11-03T02:39:00.148Z,99963.84
2022-11-03T02:41:31.940Z,99964.13
2022-11-03T02:44:01.723Z,99962.44
2022-11-03T02:46:33.729Z,99955.81
2022-11-03T02:49:02.308Z,99963.25
2022-11-03T02:51:30.685Z,99965.22
2022-11-03T02:54:10.340Z,99959.13
2022-11-03T02:56:48.660Z,99961.31
2022-11-03T02:59:24.345Z,99954.44
2022-11-03T03:01:59.183Z,99954.44
2022-11-03T03:04:33.839Z,99957.75
2022-11-03T03:07:06.635Z,99961.38
2022-11-03T03:09:42.631Z,99963.03
2022-11-03T03:12:13.375Z,99956.19
2022-11-03T03:14:45.872Z,99953.16
2022-11-03T03:17:20.198Z,99953.75
2022-11-03T03:19:55.304Z,99943.28
2022-11-03T03:22:32.544Z,99938.34
2022-11-03T03:25:10.402Z,99933.94
2022-11-03T03:27:45.822Z,99938.06
2022-11-03T03:30:15.208Z,99938.63
2022-11-03T03:32:49.541Z,99939.75
2022-11-03T03:35:23.498Z,99940.59
2022-11-03T03:37:58.880Z,99939.75
2022-11-03T03:40:32.751Z,99940.00
2022-11-03T03:43:04.983Z,99940.84
2022-11-03T03:45:35.265Z,99937.25
2022-11-03T03:48:05.249Z,99944.44
2022-11-03T03:50:38.149Z,99925.94
2022-11-03T03:53:10.955Z,99933.38
2022-11-03T03:55:42.747Z,99922.88
2022-11-03T03:58:15.108Z,99916.81
2022-11-03T04:00:43.972Z,99916.53
2022-11-03T04:03:18.714Z,99912.38
2022-11-03T04:05:47.646Z,99910.16
2022-11-03T04:08:17.853Z,99917.06
2022-11-03T04:11:07.640Z,99903.53
2022-11-03T04:13:54.922Z,99907.38
2022-11-03T04:16:40.802Z,99897.97
2022-11-03T04:19:29.457Z,99900.44
2022-11-03T04:22:15.325Z,99895.19
2022-11-03T04:24:44.663Z,99884.41
2022-11-03T04:27:29.850Z,99896.28
2022-11-03T04:30:11.196Z,99891.84
2022-11-03T04:32:39.751Z,99881.09
2022-11-03T04:35:18.110Z,99883.00
2022-11-03T04:37:49.977Z,99880.56
2022-11-03T04:40:19.406Z,99869.50
2022-11-03T04:42:48.504Z,99875.63
2022-11-03T04:45:25.345Z,99865.44
2022-11-03T04:47:54.612Z,99855.50
2022-11-03T04:50:25.080Z,99854.13
2022-11-03T04:52:58.395Z,99848.59
2022-11-03T04:55:27.668Z,99842.81
2022-11-03T04:58:01.431Z,99837.84
2022-11-03T05:00:31.333Z,99847.47
2022-11-03T05:02:59.781Z,99843.63
2022-11-03T05:05:28.597Z,99845.56
2022-11-03T05:07:59.506Z,99837.50
2022-11-03T05:10:30.773Z,99839.19
2022-11-03T05:13:01.384Z,99838.34
2022-11-03T05:15:36.084Z,99837.22
2022-11-03T05:18:20.648Z,99844.44
2022-11-03T05:20:54.154Z,99852.97
2022-11-03T05:23:24.103Z,99843.28
2022-11-03T05:25:55.053Z,99841.66
2022-11-03T05:28:27.098Z,99841.91
2022-11-03T05:30:57.216Z,99843.00
2022-11-03T05:33:31.961Z,99832.78
2022-11-03T05:36:03.456Z,99835.25
2022-11-03T05:38:34.679Z,99832.47
2022-11-03T05:41:03.467Z,99832.22
2022-11-03T05:43:31.873Z,99836.63
2022-11-03T05:46:04.489Z,99833.59
2022-11-03T05:48:36.523Z,99828.63
2022-11-03T05:51:17.457Z,99843.00
2022-11-03T05:53:46.423Z,99833.00
2022-11-03T05:56:22.844Z,99826.38
2022-11-03T05:58:54.549Z,99833.03
2022-11-03T06:01:30.192Z,99834.66
2022-11-03T06:04:01.229Z,99824.97
2022-11-03T06:06:35.824Z,99824.94
2022-11-03T06:09:13.346Z,99826.88
2022-11-03T06:11:42.471Z,99824.09
2022-11-03T06:14:23.795Z,99832.63
2022-11-03T06:16:57.840Z,99831.22
2022-11-03T06:19:30.190Z,99830.38
2022-11-03T06:22:04.353Z,99840.59
2022-11-03T06:24:35.152Z,99832.78
2022-11-03T06:27:03.815Z,99831.94
2022-11-03T06:29:34.752Z,99827.22
2022-11-03T06:32:04.535Z,99829.38
2022-11-03T06:34:42.722Z,99838.22
2022-11-03T06:37:20.927Z,99829.63
2022-11-03T06:39:50.079Z,99828.19
2022-11-03T06:42:26.688Z,99834.22
2022-11-03T06:44:57.759Z,99828.66
2022-11-03T06:47:30.515Z,99830.59
2022-11-03T06:50:01.542Z,99833.34
2022-11-03T06:52:32.736Z,99823.31
2022-11-03T06:55:22.623Z,99818.63
2022-11-03T06:57:56.608Z,99812.78
2022-11-03T07:00:38.518Z,99814.44
2022-11-03T07:03:19.240Z,99819.69
2022-11-03T07:05:47.640Z,99820.75
2022-11-03T07:08:26.482Z,99811.56
2022-11-03T07:11:04.327Z,99806.81
2022-11-03T07:13:35.651Z,99809.78
2022-11-03T07:16:04.736Z,99813.03
2022-11-03T07:18:40.831Z,99803.59
2022-11-03T07:21:37.514Z,99806.53
2022-11-03T07:24:17.629Z,99807.56
2022-11-03T07:26:46.043Z,99803.84
2022-11-03T07:29:21.987Z,99797.94
2022-11-03T07:31:53.394Z,99791.19
2022-11-03T07:34:27.529Z,99794.13
2022-11-03T07:36:58.081Z,99797.09
2022-11-03T07:39:33.569Z,99786.53
2022-11-03T07:42:04.016Z,99788.94
2022-11-03T07:44:32.461Z,99784.16
2022-11-03T07:47:00.902Z,99787.38
2022-11-03T07:49:31.994Z,99787.59
2022-11-03T07:52:01.524Z,99787.53
2022-11-03T07:54:34.168Z,99771.09
2022-11-03T07:57:07.962Z,99770.50
2022-11-03T07:59:41.036Z,99761.28
2022-11-03T08:02:26.448Z,99758.13
2022-11-03T08:04:56.284Z,99749.84
2022-11-03T08:07:24.777Z,99743.78
2022-11-03T08:09:53.595Z,99738.50
2022-11-03T08:12:22.514Z,99738.03
2022-11-03T08:14:51.161Z,99741.34
2022-11-03T08:17:19.629Z,99723.50
2022-11-03T08:19:47.997Z,99724.66
2022-11-03T08:22:17.807Z,99713.00
2022-11-03T08:24:46.200Z,99713.81
2022-11-03T08:27:14.650Z,99707.75
2022-11-03T08:29:43.048Z,99708.91
2022-11-03T08:32:11.517Z,99695.28
2022-11-03T08:34:39.906Z,99696.72
2022-11-03T08:37:08.321Z,99691.47
2022-11-03T08:39:38.109Z,99684.25
2022-11-03T08:42:06.604Z,99682.00
2022-11-03T08:44:34.984Z,99680.03
2022-11-03T08:47:03.370Z,99673.03
2022-11-03T08:49:31.753Z,99676.66
2022-11-03T08:52:00.408Z,99671.09
2022-11-03T08:54:28.786Z,99668.63
2022-11-03T08:56:58.619Z,99654.94
2022-11-03T08:59:27.070Z,99653.81
2022-11-03T09:01:55.587Z,99656.78
2022-11-03T09:04:24.016Z,99649.78
2022-11-03T09:06:52.434Z,99631.34
2022-11-03T09:12:11.227Z,99624.59
2022-11-03T09:14:40.304Z,99626.94
2022-11-03T09:17:08.763Z,99616.22
2022-11-03T09:19:37.153Z,99611.38
2022-11-03T09:22:05.660Z,99606.53
2022-11-03T09:24:34.167Z,99609.72
2022-11-03T09:27:03.152Z,99601.81
2022-11-03T09:29:45.852Z,99604.16
2022-11-03T09:32:23.504Z,99596.22
2022-11-03T09:34:52.231Z,99594.97
2022-11-03T09:37:20.619Z,99594.00
2022-11-03T09:39:48.980Z,99592.28
2022-11-03T09:42:18.364Z,99580.19
2022-11-03T09:44:50.881Z,99580.09
2022-11-03T09:47:25.672Z,99577.97
2022-11-03T09:49:54.182Z,99571.47
2022-11-03T09:52:24.580Z,99561.03
2022-11-03T09:54:56.426Z,99555.34
2022-11-03T09:57:28.029Z,99545.22
2022-11-03T09:59:58.012Z,99524.78
2022-11-03T10:02:29.503Z,99536.41
2022-11-03T10:05:03.367Z,99526.09
2022-11-03T10:07:35.376Z,99520.69
2022-11-03T10:10:03.938Z,99519.56
2022-11-03T10:12:38.642Z,99517.63
2022-11-03T10:15:16.533Z,99521.69
2022-11-03T10:17:45.954Z,99510.97
2022-11-03T10:20:17.001Z,99509.19
2022-11-03T10:22:47.195Z,99504.78
2022-11-03T10:25:36.241Z,99495.69
2022-11-03T10:28:20.823Z,99482.84
2022-11-03T10:31:11.447Z,99486.41
2022-11-03T10:33:42.621Z,99476.09
2022-11-03T10:36:25.986Z,99462.78
2022-11-03T10:38:55.634Z,99460.38
2022-11-03T10:41:26.738Z,99449.28
2022-11-03T10:44:08.299Z,99445.22
2022-11-03T10:46:50.827Z,99441.44
2022-11-03T10:49:21.677Z,99434.34
2022-11-03T10:51:52.879Z,99429.91
2022-11-03T10:54:24.300Z,99419.06
2022-11-03T10:56:53.659Z,99411.78
2022-11-03T10:59:31.735Z,99406.47
2022-11-03T11:02:02.669Z,99404.56
2022-11-03T11:04:33.405Z,99392.03
2022-11-03T11:07:03.038Z,99388.31
2022-11-03T11:09:31.465Z,99381.56
2022-11-03T11:12:05.640Z,99357.31
2022-11-03T11:14:40.396Z,99361.63
2022-11-03T11:17:47.834Z,99365.31
2022-11-03T11:20:39.025Z,99348.44
2022-11-03T11:23:52.708Z,99348.03
2022-11-03T11:26:42.290Z,99341.22
2022-11-03T11:29:37.052Z,99325.25
2022-11-03T11:33:00.380Z,99316.25
2022-11-03T11:36:28.673Z,99319.03
2022-11-03T11:39:01.410Z,99310.31
2022-11-03T11:42:14.258Z,99304.66
2022-11-03T11:44:59.073Z,99298.91
2022-11-03T11:47:33.986Z,99299.50
2022-11-03T11:50:33.038Z,99286.31
2022-11-03T11:53:14.977Z,99264.13
2022-11-03T11:55:52.017Z,99257.03
2022-11-03T11:58:39.012Z,99259.03
2022-11-03T12:01:23.341Z,99243.63
2022-11-03T12:03:54.325Z,99240.41
2022-11-03T12:06:35.568Z,99243.56
2022-11-03T12:09:09.626Z,99249.31
2022-11-03T12:11:47.029Z,99247.00
2022-11-03T12:14:33.750Z,99238.72
2022-11-03T12:17:35.540Z,99216.53
2022-11-03T12:20:36.983Z,99215.97
2022-11-03T12:23:07.463Z,99208.97
2022-11-03T12:25:40.263Z,99210.31
2022-11-03T12:28:09.122Z,99201.94
2022-11-03T12:30:40.277Z,99205.28
2022-11-03T12:33:10.947Z,99196.41
2022-11-03T12:35:39.490Z,99191.69
2022-11-03T12:38:09.267Z,99181.38
2022-11-03T12:40:39.117Z,99176.66
2022-11-03T12:43:07.784Z,99179.81
2022-11-03T12:45:36.353Z,99168.44
2022-11-03T12:48:06.262Z,99164.69
2022-11-03T12:50:34.729Z,99166.56
2022-11-03T12:53:03.104Z,99147.06
2022-11-03T12:55:32.864Z,99147.91
2022-11-03T12:58:01.500Z,99144.59
2022-11-03T13:00:30.075Z,99144.75
2022-11-03T13:02:58.572Z,99163.19
2022-11-03T13:05:27.112Z,99143.34
2022-11-03T13:07:55.592Z,99134.34
2022-11-03T13:10:24.026Z,99139.16
2022-11-03T13:12:53.847Z,99141.09
2022-11-03T13:15:22.290Z,99139.06
2022-11-03T13:18:12.377Z,99134.34
2022-11-03T13:20:40.139Z,99134.03
2022-11-03T13:23:08.931Z,99123.38
2022-11-03T13:25:37.626Z,99125.13
2022-11-03T13:28:07.812Z,99136.84
2022-11-03T13:30:36.732Z,99127.41
2022-11-03T13:33:05.676Z,99118.00
2022-11-03T13:35:34.358Z,99120.66
2022-11-03T13:38:02.858Z,99112.44
2022-11-03T13:43:21.355Z,99117.66
2022-11-03T13:45:49.794Z,99107.50
2022-11-03T13:51:10.667Z,99119.66
2022-11-03T13:56:28.383Z,99127.03
2022-11-03T14:01:47.741Z,99117.56
2022-11-03T14:07:04.691Z,99115.44
2022-11-03T14:09:33.454Z,99114.84
2022-11-03T14:12:19.622Z,99112.25
2022-11-03T14:14:49.562Z,99102.66
2022-11-03T14:17:17.946Z,99105.19
2022-11-03T14:19:51.994Z,99097.00
2022-11-03T14:22:21.610Z,99100.81
2022-11-03T14:24:50.117Z,99096.94
2022-11-03T14:27:20.100Z,99086.31
2022-11-03T14:29:50.935Z,99092.78
2022-11-03T14:32:20.620Z,99094.16
2022-11-03T14:34:49.627Z,99091.09
2022-11-03T14:37:18.226Z,99090.50
2022-11-03T14:39:46.743Z,99085.44
2022-11-03T14:42:15.963Z,99082.34
2022-11-03T14:44:46.468Z,99082.06
2022-11-03T14:47:18.852Z,99074.22
2022-11-03T14:49:47.587Z,99069.66
2022-11-03T14:52:17.466Z,99067.88
2022-11-03T14:54:46.021Z,99065.63
2022-11-03T14:57:14.386Z,99063.38
2022-11-03T14:59:42.907Z,99067.53
2022-11-03T15:02:12.182Z,99066.91
2022-11-03T15:04:42.143Z,99053.47
2022-11-03T15:07:10.545Z,99063.19
2022-11-03T15:09:38.988Z,99054.53
2022-11-03T15:12:07.859Z,99056.69
2022-11-03T15:14:36.295Z,99048.00
2022-11-03T15:17:04.673Z,99056.88
2022-11-03T15:19:33.085Z,99062.16
2022-11-03T15:22:02.866Z,99071.88
2022-11-03T15:27:19.862Z,99075.19
2022-11-03T15:29:48.250Z,99071.25
2022-11-03T15:32:19.683Z,99071.78
2022-11-03T15:34:48.097Z,99063.94
2022-11-03T15:37:17.869Z,99070.84
2022-11-03T15:39:46.310Z,99049.06
2022-11-03T15:42:14.770Z,99047.56
2022-11-03T15:44:43.210Z,99038.88
2022-11-03T15:47:11.623Z,99029.06
2022-11-03T15:49:40.088Z,99027.56
2022-11-03T15:52:10.101Z,99016.94
2022-11-03T15:54:42.556Z,98992.41
2022-11-03T15:57:11.460Z,98996.16
2022-11-03T15:59:40.160Z,98991.09
2022-11-03T16:02:27.620Z,98991.25
2022-11-03T16:04:57.731Z,98979.81
2022-11-03T16:07:26.780Z,98979.97
2022-11-03T16:09:58.207Z,98980.94
2022-11-03T16:12:27.452Z,98976.84
2022-11-03T16:14:56.060Z,98992.56
2022-11-03T16:17:25.095Z,98993.56
2022-11-03T16:19:53.765Z,98987.84
2022-11-03T16:22:22.371Z,98990.13
2022-11-03T16:24:50.975Z,98994.16
2022-11-03T16:27:20.835Z,99003.19
2022-11-03T16:29:49.467Z,98991.88
2022-11-03T16:32:18.875Z,98991.06
2022-11-03T16:34:48.581Z,98986.16
2022-11-03T16:37:18.080Z,98994.81
2022-11-03T16:39:47.101Z,98996.59
2022-11-03T16:42:15.773Z,98987.28
2022-11-03T16:44:45.694Z,98984.31
2022-11-03T16:47:14.482Z,98980.22
2022-11-03T16:49:43.215Z,98978.13
2022-11-03T16:52:12.298Z,98974.00
2022-11-03T16:54:41.183Z,98973.03
2022-11-03T16:57:10.113Z,98961.41
2022-11-03T16:59:39.544Z,98954.03
2022-11-03T17:02:15.991Z,98949.94
2022-11-03T17:04:45.541Z,98950.59
2022-11-03T17:07:14.635Z,98934.22
2022-11-03T17:09:46.528Z,98946.00
2022-11-03T17:12:15.169Z,98943.53
2022-11-03T17:14:43.744Z,98947.78
2022-11-03T17:17:15.032Z,98948.44
2022-11-03T17:19:43.410Z,98952.34
2022-11-03T17:22:12.426Z,98953.81
2022-11-03T17:24:40.903Z,98943.38
2022-11-03T17:27:17.010Z,98944.00
2022-11-03T17:29:56.037Z,98928.78
2022-11-03T17:32:33.426Z,98914.41
2022-11-03T17:35:05.064Z,98919.47
2022-11-03T17:37:36.353Z,98917.00
2022-11-03T17:40:05.558Z,98916.84
2022-11-03T17:42:40.435Z,98921.38
2022-11-03T17:45:14.963Z,98921.69
2022-11-03T17:47:45.253Z,98923.13
2022-11-03T17:50:18.123Z,98913.19
2022-11-03T17:52:49.988Z,98909.09
2022-11-03T17:55:27.526Z,98904.50
2022-11-03T17:58:00.695Z,98904.84
2022-11-03T18:00:32.362Z,98911.50
2022-11-03T18:03:08.555Z,98902.69
2022-11-03T18:05:37.627Z,98895.47
2022-11-03T18:08:10.830Z,98892.22
2022-11-03T18:10:43.601Z,98898.94
2022-11-03T18:13:18.091Z,98896.16
2022-11-03T18:15:50.560Z,98895.00
2022-11-03T18:18:32.813Z,98884.38
2022-11-03T18:21:02.616Z,98874.28
2022-11-03T18:23:35.614Z,98869.22
2022-11-03T18:26:14.985Z,98864.50
2022-11-03T18:28:44.447Z,98865.47
2022-11-03T18:31:22.862Z,98854.03
2022-11-03T18:33:55.425Z,98849.47
2022-11-03T18:36:26.370Z,98852.47
2022-11-03T18:38:59.310Z,98837.13
2022-11-03T18:41:39.886Z,98839.22
2022-11-03T18:44:19.258Z,98834.81
2022-11-03T18:46:49.418Z,98828.94
2022-11-03T18:49:21.615Z,98832.03
2022-11-03T18:51:55.379Z,98831.84
2022-11-03T18:54:30.826Z,98836.88
2022-11-03T18:57:00.436Z,98827.59
2022-11-03T18:59:35.473Z,98827.44
2022-11-03T19:02:15.821Z,98827.25
2022-11-03T19:04:48.593Z,98828.22
2022-11-03T19:07:27.603Z,98823.97
2022-11-03T19:09:58.043Z,98832.44
2022-11-03T19:12:27.558Z,98822.28
2022-11-03T19:14:58.305Z,98818.00
2022-11-03T19:17:29.169Z,98822.56
2022-11-03T19:20:00.764Z,98823.53
2022-11-03T19:22:32.360Z,98819.44
2022-11-03T19:25:01.940Z,98808.19
2022-11-03T19:27:34.761Z,98793.00
2022-11-03T19:30:08.559Z,98799.50
2022-11-03T19:32:45.229Z,98796.53
2022-11-03T19:35:24.675Z,98785.78
2022-11-03T19:38:07.289Z,98780.56
2022-11-03T19:40:37.423Z,98765.38
2022-11-03T19:43:10.786Z,98760.44
2022-11-03T19:45:43.721Z,98741.38
2022-11-03T19:48:29.810Z,98754.41
2022-11-03T19:51:01.159Z,98740.88
2022-11-03T19:53:31.471Z,98739.22
2022-11-03T19:56:01.471Z,98732.06
2022-11-03T19:58:32.487Z,98725.69
2022-11-03T20:01:08.275Z,98726.19
2022-11-03T20:03:39.239Z,98718.34
2022-11-03T20:06:14.216Z,98710.84
2022-11-03T20:08:49.123Z,98717.72
2022-11-03T20:11:19.087Z,98716.56
2022-11-03T20:13:48.150Z,98720.16
2022-11-03T20:16:19.377Z,98707.41
2022-11-03T20:18:52.907Z,98701.84
2022-11-03T20:21:26.911Z,98692.25
2022-11-03T20:24:01.055Z,98688.31
2022-11-03T20:26:31.826Z,98686.69
2022-11-03T20:29:09.034Z,98681.44
2022-11-03T20:31:38.919Z,98668.75
2022-11-03T20:34:08.777Z,98674.28
2022-11-03T20:36:40.710Z,98665.78
2022-11-03T20:39:15.269Z,98662.19
2022-11-03T20:41:49.184Z,98658.91
2022-11-03T20:44:21.110Z,98645.03
2022-11-03T20:46:51.912Z,98648.50
2022-11-03T20:49:21.903Z,98650.44
2022-11-03T20:51:52.889Z,98646.34
2022-11-03T20:54:24.079Z,98649.47
2022-11-03T20:56:55.510Z,98640.59
2022-11-03T20:59:27.286Z,98635.69
2022-11-03T21:01:56.764Z,98640.28
2022-11-03T21:04:26.674Z,98638.44
2022-11-03T21:06:57.133Z,98626.69
2022-11-03T21:09:26.240Z,98629.59
2022-11-03T21:11:55.367Z,98630.06
2022-11-03T21:14:28.588Z,98623.84
2022-11-03T21:17:14.620Z,98624.03
2022-11-03T21:19:57.604Z,98622.03
2022-11-03T21:25:25.506Z,98630.78
2022-11-03T21:27:55.108Z,98624.22
2022-11-03T21:30:24.454Z,98627.94
2022-11-03T21:32:53.076Z,98626.63
2022-11-03T21:35:23.741Z,98618.97
2022-11-03T21:37:53.565Z,98616.50
2022-11-03T21:40:22.002Z,98607.88
2022-11-03T21:43:08.038Z,98610.31
2022-11-03T21:45:36.422Z,98600.38
2022-11-03T21:48:23.769Z,98603.34
2022-11-03T21:50:52.283Z,98584.28
2022-11-03T21:53:22.103Z,98582.63
2022-11-03T21:55:50.974Z,98582.63
2022-11-03T21:58:19.375Z,98573.97
2022-11-03T22:00:48.330Z,98570.09
2022-11-03T22:03:16.816Z,98564.72
2022-11-03T22:05:45.189Z,98566.34
2022-11-03T22:08:13.604Z,98564.09
2022-11-03T22:10:43.679Z,98562.47
2022-11-03T22:13:12.291Z,98568.00
2022-11-03T22:15:58.323Z,98554.16
2022-11-03T22:18:27.302Z,98552.50
2022-11-03T22:21:20.732Z,98550.22
2022-11-03T22:24:06.319Z,98550.56
2022-11-03T22:26:53.583Z,98541.75
2022-11-03T22:29:39.308Z,98544.81
2022-11-03T22:32:15.470Z,98537.19
2022-11-03T22:35:01.119Z,98535.19
2022-11-03T22:40:17.364Z,98524.28
2022-11-03T22:43:04.923Z,98514.97
2022-11-03T22:45:50.617Z,98520.00
2022-11-03T22:48:19.278Z,98518.41
2022-11-03T22:50:47.709Z,98513.50
2022-11-03T22:53:33.237Z,98517.91
2022-11-03T22:56:02.401Z,98505.19
2022-11-03T22:58:32.212Z,98500.75
2022-11-03T23:01:05.348Z,98498.31
2022-11-03T23:03:35.519Z,98493.13
2022-11-03T23:06:05.272Z,98483.13
2022-11-03T23:08:34.568Z,98498.75
2022-11-03T23:11:09.267Z,98495.50
2022-11-03T23:13:39.081Z,98490.78
2022-11-03T23:16:16.293Z,98487.19
2022-11-03T23:19:02.639Z,98482.97
2022-11-03T23:21:32.386Z,98480.34
2022-11-03T23:24:17.996Z,98475.03
2022-11-03T23:26:47.000Z,98479.91
2022-11-03T23:29:17.437Z,98469.34
2022-11-03T23:31:47.200Z,98463.16
2022-11-03T23:34:16.223Z,98461.72
2022-11-03T23:36:44.908Z,98451.13
2022-11-03T23:39:15.069Z,98451.31
2022-11-03T23:41:44.868Z,98442.31
2022-11-03T23:44:14.199Z,98432.56
2022-11-03T23:47:02.614Z,98431.91
2022-11-03T23:49:31.061Z,98426.03
2022-11-03T23:51:59.597Z,98425.75
2022-11-03T23:54:28.317Z,98416.28
2022-11-03T23:57:14.056Z,98409.91
2022-11-03T23:59:42.492Z,98417.44
